createdAt,value
2023-05-17T00:00:46.314Z,102404.75
2023-05-17T00:03:12.838Z,102402.31
2023-05-17T00:05:39.426Z,102394.94
2023-05-17T00:08:06.042Z,102393.91
2023-05-17T00:10:32.631Z,102395.03
2023-05-17T00:12:59.153Z,102396.19
2023-05-17T00:15:25.712Z,102392.66
2023-05-17T00:17:52.351Z,102385.81
2023-05-17T00:20:18.967Z,102389.28
2023-05-17T00:22:47.246Z,102390.13
2023-05-17T00:25:13.884Z,102392.00
2023-05-17T00:27:40.361Z,102389.47
2023-05-17T00:30:07.586Z,102394.81
2023-05-17T00:32:34.101Z,102393.97
2023-05-17T00:35:00.760Z,102391.53
2023-05-17T00:37:27.311Z,102397.91
2023-05-17T00:39:54.203Z,102394.56
2023-05-17T00:42:20.898Z,102390.28
2023-05-17T00:44:47.412Z,102388.69
2023-05-17T00:47:13.988Z,102383.75
2023-05-17T00:49:41.107Z,102388.25
2023-05-17T00:52:07.628Z,102386.84
2023-05-17T00:54:34.894Z,102392.41
2023-05-17T00:57:01.522Z,102395.41
2023-05-17T00:59:29.386Z,102396.22
2023-05-17T01:01:56.564Z,102385.19
2023-05-17T01:04:23.212Z,102378.84
2023-05-17T01:06:50.201Z,102381.28
2023-05-17T01:09:17.286Z,102386.19
2023-05-17T01:11:58.923Z,102393.22
2023-05-17T01:14:41.499Z,102380.34
2023-05-17T01:17:22.825Z,102376.78
2023-05-17T01:20:01.926Z,102390.91
2023-05-17T01:22:37.766Z,102371.09
2023-05-17T01:25:35.009Z,102376.03
2023-05-17T01:28:03.539Z,102373.50
2023-05-17T01:30:33.729Z,102375.94
2023-05-17T01:33:02.759Z,102378.56
2023-05-17T01:35:29.716Z,102380.53
2023-05-17T01:37:56.521Z,102379.56
2023-05-17T01:40:24.458Z,102378.09
2023-05-17T01:43:08.466Z,102376.34
2023-05-17T01:45:44.134Z,102383.72
2023-05-17T01:48:40.113Z,102378.66
2023-05-17T01:51:09.458Z,102374.56
2023-05-17T01:53:36.119Z,102383.06
2023-05-17T01:56:07.727Z,102382.97
2023-05-17T01:58:44.251Z,102387.91
2023-05-17T02:01:11.464Z,102396.19
2023-05-17T02:03:38.018Z,102382.34
2023-05-17T02:06:04.799Z,102377.94
2023-05-17T02:08:31.360Z,102387.41
2023-05-17T02:10:57.812Z,102383.09
2023-05-17T02:13:24.330Z,102390.69
2023-05-17T02:15:50.894Z,102382.91
2023-05-17T02:18:17.542Z,102388.78
2023-05-17T02:20:44.164Z,102379.47
2023-05-17T02:23:11.369Z,102385.97
2023-05-17T02:25:37.849Z,102385.97
2023-05-17T02:28:04.522Z,102390.19
2023-05-17T02:30:31.200Z,102396.16
2023-05-17T02:32:58.286Z,102398.03
2023-05-17T02:35:25.140Z,102392.81
2023-05-17T02:37:52.066Z,102396.16
2023-05-17T02:40:18.680Z,102404.53
2023-05-17T02:42:45.276Z,102402.66
2023-05-17T02:45:11.794Z,102404.34
2023-05-17T02:47:38.479Z,102407.50
2023-05-17T02:50:05.485Z,102400.50
2023-05-17T02:52:32.129Z,102406.56
2023-05-17T02:54:58.666Z,102415.25
2023-05-17T02:57:25.154Z,102413.38
2023-05-17T02:59:51.747Z,102413.94
2023-05-17T03:02:18.365Z,102413.63
2023-05-17T03:04:45.075Z,102422.22
2023-05-17T03:07:11.684Z,102426.31
2023-05-17T03:09:38.189Z,102428.75
2023-05-17T03:12:04.991Z,102443.22
2023-05-17T03:14:31.474Z,102435.50
2023-05-17T03:16:57.968Z,102436.84
2023-05-17T03:19:24.675Z,102438.34
2023-05-17T03:21:51.280Z,102439.09
2023-05-17T03:24:17.911Z,102450.41
2023-05-17T03:26:44.592Z,102451.97
2023-05-17T03:29:11.688Z,102452.06
2023-05-17T03:31:38.160Z,102454.91
2023-05-17T03:34:04.740Z,102458.38
2023-05-17T03:36:38.253Z,102466.13
2023-05-17T03:39:04.999Z,102468.84
2023-05-17T03:41:32.210Z,102466.88
2023-05-17T03:43:58.641Z,102463.41
2023-05-17T03:46:25.168Z,102458.06
2023-05-17T03:48:51.778Z,102478.00
2023-05-17T03:51:18.529Z,102477.78
2023-05-17T03:53:45.056Z,102472.75
2023-05-17T03:56:11.746Z,102480.41
2023-05-17T03:58:38.483Z,102486.19
2023-05-17T04:01:05.302Z,102484.41
2023-05-17T04:03:31.991Z,102487.97
2023-05-17T04:06:07.012Z,102486.94
2023-05-17T04:08:34.635Z,102481.59
2023-05-17T04:11:10.031Z,102489.53
2023-05-17T04:13:39.401Z,102480.94
2023-05-17T04:16:07.328Z,102497.41
2023-05-17T04:18:36.256Z,102497.59
2023-05-17T04:21:03.689Z,102498.66
2023-05-17T04:23:30.859Z,102498.97
2023-05-17T04:25:58.498Z,102502.84
2023-05-17T04:28:25.953Z,102503.88
2023-05-17T04:30:52.989Z,102501.63
2023-05-17T04:33:20.040Z,102505.31
2023-05-17T04:35:46.789Z,102515.78
2023-05-17T04:38:13.542Z,102517.47
2023-05-17T04:40:40.282Z,102521.13
2023-05-17T04:43:07.066Z,102519.47
2023-05-17T04:45:34.042Z,102525.53
2023-05-17T04:48:00.855Z,102523.09
2023-05-17T04:50:28.050Z,102530.34
2023-05-17T04:52:54.520Z,102531.34
2023-05-17T04:55:21.367Z,102532.84
2023-05-17T04:57:47.825Z,102541.44
2023-05-17T05:00:15.642Z,102538.63
2023-05-17T05:02:42.625Z,102544.44
2023-05-17T05:05:12.289Z,102546.56
2023-05-17T05:07:40.085Z,102542.78
2023-05-17T05:10:07.392Z,102548.28
2023-05-17T05:12:33.878Z,102549.53
2023-05-17T05:15:01.213Z,102551.75
2023-05-17T05:17:29.504Z,102557.63
2023-05-17T05:19:56.301Z,102555.34
2023-05-17T05:22:22.795Z,102554.50
2023-05-17T05:24:49.283Z,102559.53
2023-05-17T05:27:16.036Z,102565.31
2023-05-17T05:29:42.667Z,102569.31
2023-05-17T05:32:09.275Z,102572.50
2023-05-17T05:34:35.752Z,102568.84
2023-05-17T05:37:02.227Z,102582.56
2023-05-17T05:39:29.056Z,102576.31
2023-05-17T05:41:55.579Z,102585.56
2023-05-17T05:44:23.374Z,102589.94
2023-05-17T05:46:51.746Z,102598.91
2023-05-17T05:49:19.500Z,102603.72
2023-05-17T05:51:45.938Z,102603.09
2023-05-17T05:54:13.722Z,102603.44
2023-05-17T05:56:40.482Z,102597.84
2023-05-17T05:59:07.204Z,102608.03
2023-05-17T06:01:34.190Z,102608.56
2023-05-17T06:04:00.730Z,102610.88
2023-05-17T06:06:27.324Z,102624.88
2023-05-17T06:08:53.943Z,102625.38
2023-05-17T06:11:21.216Z,102631.50
2023-05-17T06:13:50.770Z,102633.69
2023-05-17T06:16:17.449Z,102634.28
2023-05-17T06:18:43.942Z,102634.72
2023-05-17T06:21:13.308Z,102631.66
2023-05-17T06:23:39.828Z,102644.47
2023-05-17T06:26:10.435Z,102642.78
2023-05-17T06:28:37.991Z,102639.94
2023-05-17T06:31:04.643Z,102642.78
2023-05-17T06:33:31.207Z,102645.63
2023-05-17T06:38:32.292Z,102646.81
2023-05-17T06:40:58.804Z,102650.78
2023-05-17T06:43:25.282Z,102648.16
2023-05-17T06:45:51.853Z,102643.09
2023-05-17T06:48:18.414Z,102651.41
2023-05-17T06:50:45.034Z,102645.19
2023-05-17T06:53:11.679Z,102647.63
2023-05-17T06:55:38.359Z,102653.53
2023-05-17T06:58:04.901Z,102655.72
2023-05-17T07:00:31.935Z,102659.28
2023-05-17T07:02:58.841Z,102665.69
2023-05-17T07:05:25.571Z,102658.69
2023-05-17T07:07:52.378Z,102660.13
2023-05-17T07:10:21.287Z,102668.03
2023-05-17T07:12:48.005Z,102660.13
2023-05-17T07:15:14.719Z,102664.63
2023-05-17T07:17:41.737Z,102670.50
2023-05-17T07:20:08.729Z,102674.47
2023-05-17T07:22:37.249Z,102670.03
2023-05-17T07:25:05.122Z,102675.19
2023-05-17T07:27:31.559Z,102684.09
2023-05-17T07:29:58.057Z,102675.16
2023-05-17T07:32:24.537Z,102684.16
2023-05-17T07:34:51.124Z,102676.38
2023-05-17T07:37:17.907Z,102690.78
2023-05-17T07:39:44.452Z,102688.25
2023-05-17T07:42:10.989Z,102685.28
2023-05-17T07:44:37.506Z,102680.25
2023-05-17T07:47:04.131Z,102689.94
2023-05-17T07:49:31.319Z,102689.50
2023-05-17T07:52:00.273Z,102692.41
2023-05-17T07:54:29.897Z,102690.44
2023-05-17T07:56:56.641Z,102692.16
2023-05-17T07:59:23.489Z,102693.50
2023-05-17T08:01:50.582Z,102693.75
2023-05-17T08:04:17.376Z,102695.94
2023-05-17T08:06:46.439Z,102689.72
2023-05-17T08:09:12.949Z,102691.28
2023-05-17T08:11:46.217Z,102691.41
2023-05-17T08:14:14.671Z,102698.88
2023-05-17T08:16:46.280Z,102700.78
2023-05-17T08:19:14.909Z,102690.53
2023-05-17T08:21:42.939Z,102700.50
2023-05-17T08:24:09.966Z,102701.66
2023-05-17T08:26:36.667Z,102700.41
2023-05-17T08:29:04.893Z,102698.63
2023-05-17T08:31:32.509Z,102696.44
2023-05-17T08:33:59.105Z,102702.94
2023-05-17T08:36:26.013Z,102697.22
2023-05-17T08:38:52.526Z,102700.81
2023-05-17T08:41:20.703Z,102690.16
2023-05-17T08:43:49.248Z,102701.69
2023-05-17T08:46:18.571Z,102703.25
2023-05-17T08:48:46.766Z,102700.13
2023-05-17T08:51:14.696Z,102699.38
2023-05-17T08:53:42.664Z,102706.44
2023-05-17T08:56:14.052Z,102689.91
2023-05-17T08:58:55.659Z,102704.09
2023-05-17T09:01:25.888Z,102700.03
2023-05-17T09:03:53.822Z,102696.69
2023-05-17T09:06:22.360Z,102693.00
2023-05-17T09:08:55.390Z,102706.34
2023-05-17T09:11:35.181Z,102704.84
2023-05-17T09:14:04.986Z,102704.50
2023-05-17T09:16:36.638Z,102704.41
2023-05-17T09:19:05.428Z,102705.91
2023-05-17T09:21:32.961Z,102710.97
2023-05-17T09:26:41.602Z,102707.63
2023-05-17T09:29:10.620Z,102711.34
2023-05-17T09:31:37.302Z,102705.28
2023-05-17T09:34:04.018Z,102718.31
2023-05-17T09:36:30.538Z,102717.41
2023-05-17T09:39:02.150Z,102702.34
2023-05-17T09:41:30.787Z,102703.31
2023-05-17T09:44:01.352Z,102698.00
2023-05-17T09:46:34.983Z,102709.53
2023-05-17T09:49:03.187Z,102718.56
2023-05-17T09:51:38.983Z,102707.97
2023-05-17T09:54:10.040Z,102714.63
2023-05-17T09:56:36.965Z,102711.59
2023-05-17T09:59:10.398Z,102709.53
2023-05-17T10:01:41.180Z,102707.66
2023-05-17T10:04:10.606Z,102700.03
2023-05-17T10:09:14.227Z,102700.72
2023-05-17T10:11:44.355Z,102701.69
2023-05-17T10:14:22.973Z,102700.34
2023-05-17T10:16:51.348Z,102707.53
2023-05-17T10:19:20.251Z,102697.31
2023-05-17T10:21:53.913Z,102698.25
2023-05-17T10:24:23.946Z,102707.69
2023-05-17T10:26:51.206Z,102708.13
2023-05-17T10:29:21.057Z,102702.53
2023-05-17T10:31:50.396Z,102707.38
2023-05-17T10:34:18.898Z,102699.75
2023-05-17T10:36:46.495Z,102707.53
2023-05-17T10:39:13.185Z,102702.34
2023-05-17T10:41:46.478Z,102699.41
2023-05-17T10:44:14.911Z,102699.06
2023-05-17T10:46:51.486Z,102703.69
2023-05-17T10:49:22.123Z,102700.88
2023-05-17T10:51:51.105Z,102696.06
2023-05-17T10:54:18.711Z,102694.25
2023-05-17T10:56:50.892Z,102686.28
2023-05-17T10:59:26.978Z,102671.91
2023-05-17T11:02:05.540Z,102681.41
2023-05-17T11:04:32.739Z,102681.94
2023-05-17T11:07:17.836Z,102671.59
2023-05-17T11:09:45.721Z,102675.44
2023-05-17T11:12:13.921Z,102676.91
2023-05-17T11:14:47.513Z,102675.25
2023-05-17T11:17:14.701Z,102659.13
2023-05-17T11:19:59.425Z,102668.28
2023-05-17T11:22:27.609Z,102670.78
2023-05-17T11:24:56.702Z,102680.19
2023-05-17T11:27:27.614Z,102666.53
2023-05-17T11:30:00.207Z,102668.28
2023-05-17T11:32:32.233Z,102669.16
2023-05-17T11:35:02.222Z,102662.88
2023-05-17T11:37:29.840Z,102667.75
2023-05-17T11:40:08.134Z,102675.16
2023-05-17T11:42:36.421Z,102665.09
2023-05-17T11:45:02.954Z,102665.56
2023-05-17T11:47:30.090Z,102662.81
2023-05-17T11:50:01.233Z,102656.41
2023-05-17T11:52:29.404Z,102671.50
2023-05-17T11:54:58.092Z,102663.06
2023-05-17T11:57:32.448Z,102660.28
2023-05-17T12:00:01.785Z,102660.84
2023-05-17T12:02:32.619Z,102663.91
2023-05-17T12:04:59.359Z,102670.63
2023-05-17T12:07:26.451Z,102670.19
2023-05-17T12:09:53.084Z,102668.75
2023-05-17T12:12:21.996Z,102658.25
2023-05-17T12:14:48.965Z,102667.09
2023-05-17T12:17:29.381Z,102666.41
2023-05-17T12:19:56.009Z,102668.50
2023-05-17T12:22:22.660Z,102656.75
2023-05-17T12:24:49.194Z,102654.56
2023-05-17T12:27:25.121Z,102656.38
2023-05-17T12:29:51.626Z,102652.78
2023-05-17T12:32:18.182Z,102656.13
2023-05-17T12:34:46.049Z,102654.31
2023-05-17T12:37:13.202Z,102661.75
2023-05-17T12:39:40.582Z,102656.41
2023-05-17T12:42:07.933Z,102648.25
2023-05-17T12:44:34.592Z,102650.41
2023-05-17T12:47:03.079Z,102658.66
2023-05-17T12:49:29.660Z,102667.25
2023-05-17T12:51:56.238Z,102649.31
2023-05-17T12:54:28.012Z,102657.72
2023-05-17T12:56:55.414Z,102656.75
2023-05-17T12:59:25.370Z,102657.72
2023-05-17T13:01:55.723Z,102657.44
2023-05-17T13:04:31.765Z,102644.56
2023-05-17T13:07:03.674Z,102649.00
2023-05-17T13:09:32.127Z,102646.22
2023-05-17T13:12:05.934Z,102651.28
2023-05-17T13:14:47.387Z,102641.34
2023-05-17T13:17:25.062Z,102640.41
2023-05-17T13:19:52.047Z,102644.13
2023-05-17T13:22:18.935Z,102639.88
2023-05-17T13:24:45.618Z,102635.97
2023-05-17T13:27:12.465Z,102631.09
2023-05-17T13:29:41.705Z,102635.91
2023-05-17T13:32:10.043Z,102629.97
2023-05-17T13:34:36.929Z,102627.66
2023-05-17T13:37:04.874Z,102625.44
2023-05-17T13:39:31.428Z,102635.69
2023-05-17T13:41:58.998Z,102627.81
2023-05-17T13:44:25.756Z,102623.56
2023-05-17T13:46:52.386Z,102610.34
2023-05-17T13:49:18.942Z,102634.69
2023-05-17T13:51:45.910Z,102626.88
2023-05-17T13:54:12.864Z,102627.63
2023-05-17T13:56:39.335Z,102623.00
2023-05-17T13:59:06.048Z,102620.84
2023-05-17T14:01:32.551Z,102619.50
2023-05-17T14:04:00.590Z,102621.00
2023-05-17T14:06:27.571Z,102625.69
2023-05-17T14:08:55.467Z,102620.09
2023-05-17T14:11:21.956Z,102619.72
2023-05-17T14:13:48.575Z,102618.44
2023-05-17T14:16:15.130Z,102617.97
2023-05-17T14:18:41.792Z,102626.94
2023-05-17T14:21:08.705Z,102621.84
2023-05-17T14:23:36.227Z,102612.69
2023-05-17T14:26:06.985Z,102621.44
2023-05-17T14:28:36.102Z,102627.19
2023-05-17T14:31:02.606Z,102620.56
2023-05-17T14:33:29.181Z,102622.16
2023-05-17T14:35:56.165Z,102617.63
2023-05-17T14:38:23.505Z,102626.09
2023-05-17T14:40:50.056Z,102626.22
2023-05-17T14:43:16.817Z,102616.22
2023-05-17T14:45:43.312Z,102632.78
2023-05-17T14:48:09.970Z,102645.59
2023-05-17T14:50:36.448Z,102640.09
2023-05-17T14:53:03.180Z,102627.19
2023-05-17T14:55:30.107Z,102633.31
2023-05-17T14:57:57.931Z,102634.69
2023-05-17T15:00:24.794Z,102638.44
2023-05-17T15:02:51.601Z,102641.31
2023-05-17T15:05:18.621Z,102651.13
2023-05-17T15:07:45.389Z,102648.41
2023-05-17T15:10:13.077Z,102639.06
2023-05-17T15:12:39.543Z,102640.84
2023-05-17T15:15:06.840Z,102643.72
2023-05-17T15:17:33.862Z,102646.22
2023-05-17T15:20:00.530Z,102635.94
2023-05-17T15:22:27.166Z,102648.31
2023-05-17T15:24:54.345Z,102637.28
2023-05-17T15:27:21.553Z,102646.66
2023-05-17T15:29:48.003Z,102639.78
2023-05-17T15:32:14.654Z,102642.31
2023-05-17T15:34:41.414Z,102638.50
2023-05-17T15:37:07.974Z,102643.09
2023-05-17T15:39:34.477Z,102629.13
2023-05-17T15:42:01.004Z,102632.03
2023-05-17T15:44:27.638Z,102625.09
2023-05-17T15:46:54.322Z,102639.94
2023-05-17T15:49:21.088Z,102634.66
2023-05-17T15:51:47.797Z,102630.97
2023-05-17T15:54:14.993Z,102634.53
2023-05-17T15:56:42.045Z,102624.91
2023-05-17T15:59:08.763Z,102623.06
2023-05-17T16:01:35.613Z,102637.69
2023-05-17T16:04:02.127Z,102625.94
2023-05-17T16:06:34.917Z,102626.75
2023-05-17T16:09:03.006Z,102632.75
2023-05-17T16:11:29.576Z,102626.81
2023-05-17T16:13:57.270Z,102632.00
2023-05-17T16:16:24.069Z,102630.38
2023-05-17T16:18:51.003Z,102635.16
2023-05-17T16:21:17.608Z,102628.97
2023-05-17T16:23:44.454Z,102627.66
2023-05-17T16:26:11.234Z,102614.09
2023-05-17T16:28:38.161Z,102628.56
2023-05-17T16:31:05.963Z,102623.03
2023-05-17T16:33:32.572Z,102628.75
2023-05-17T16:35:59.346Z,102631.59
2023-05-17T16:38:26.428Z,102623.66
2023-05-17T16:40:52.976Z,102631.19
2023-05-17T16:43:19.634Z,102636.81
2023-05-17T16:45:46.535Z,102638.53
2023-05-17T16:48:14.396Z,102637.34
2023-05-17T16:50:42.200Z,102636.34
2023-05-17T16:53:09.101Z,102635.59
2023-05-17T16:55:36.574Z,102648.50
2023-05-17T16:58:03.823Z,102646.78
2023-05-17T17:00:34.365Z,102648.16
2023-05-17T17:03:07.295Z,102653.53
2023-05-17T17:05:36.130Z,102661.94
2023-05-17T17:08:02.786Z,102658.59
2023-05-17T17:10:29.663Z,102653.28
2023-05-17T17:12:56.455Z,102658.78
2023-05-17T17:15:23.744Z,102662.44
2023-05-17T17:17:53.670Z,102661.63
2023-05-17T17:20:26.535Z,102658.59
2023-05-17T17:22:53.270Z,102662.59
2023-05-17T17:25:19.845Z,102666.56
2023-05-17T17:27:51.088Z,102669.34
2023-05-17T17:30:19.620Z,102673.13
2023-05-17T17:32:46.776Z,102676.75
2023-05-17T17:35:13.647Z,102678.69
2023-05-17T17:37:41.657Z,102678.81
2023-05-17T17:40:08.877Z,102675.75
2023-05-17T17:42:35.448Z,102673.38
2023-05-17T17:45:03.489Z,102682.47
2023-05-17T17:47:32.962Z,102685.72
2023-05-17T17:49:59.459Z,102680.78
2023-05-17T17:52:27.871Z,102684.38
2023-05-17T17:54:54.417Z,102685.56
2023-05-17T17:57:22.844Z,102685.94
2023-05-17T17:59:50.905Z,102681.38
2023-05-17T18:02:17.407Z,102688.38
2023-05-17T18:04:44.186Z,102688.25
2023-05-17T18:07:12.634Z,102691.09
2023-05-17T18:09:39.359Z,102688.09
2023-05-17T18:12:06.269Z,102686.00
2023-05-17T18:14:33.705Z,102689.56
2023-05-17T18:17:00.319Z,102691.97
2023-05-17T18:19:26.836Z,102689.28
2023-05-17T18:21:53.722Z,102692.66
2023-05-17T18:24:20.210Z,102689.72
2023-05-17T18:26:46.936Z,102699.25
2023-05-17T18:29:13.628Z,102688.66
2023-05-17T18:31:40.102Z,102689.50
2023-05-17T18:34:06.547Z,102697.50
2023-05-17T18:36:33.371Z,102699.06
2023-05-17T18:39:00.807Z,102689.16
2023-05-17T18:41:27.284Z,102698.66
2023-05-17T18:43:53.991Z,102696.00
2023-05-17T18:46:20.634Z,102693.63
2023-05-17T18:48:47.144Z,102706.59
2023-05-17T18:51:15.745Z,102701.88
2023-05-17T18:53:42.870Z,102705.22
2023-05-17T18:56:09.486Z,102707.03
2023-05-17T18:58:36.170Z,102705.91
2023-05-17T19:01:03.034Z,102719.69
2023-05-17T19:03:29.714Z,102710.88
2023-05-17T19:05:56.394Z,102714.63
2023-05-17T19:08:23.318Z,102724.91
2023-05-17T19:10:49.948Z,102721.28
2023-05-17T19:13:16.508Z,102728.63
2023-05-17T19:15:43.024Z,102724.81
2023-05-17T19:18:09.643Z,102730.47
2023-05-17T19:20:36.718Z,102729.63
2023-05-17T19:23:03.672Z,102727.34
2023-05-17T19:25:30.813Z,102734.50
2023-05-17T19:27:57.357Z,102739.34
2023-05-17T19:30:24.193Z,102744.31
2023-05-17T19:32:50.773Z,102743.44
2023-05-17T19:35:17.444Z,102750.75
2023-05-17T19:37:43.920Z,102749.78
2023-05-17T19:40:11.100Z,102733.50
2023-05-17T19:42:38.949Z,102745.66
2023-05-17T19:45:09.796Z,102740.75
2023-05-17T19:47:36.665Z,102747.16
2023-05-17T19:50:03.379Z,102753.44
2023-05-17T19:52:30.213Z,102750.06
2023-05-17T19:54:56.840Z,102756.25
2023-05-17T19:57:23.671Z,102750.25
2023-05-17T19:59:52.176Z,102755.69
2023-05-17T20:02:19.285Z,102754.75
2023-05-17T20:04:46.795Z,102763.06
2023-05-17T20:07:13.336Z,102752.28
2023-05-17T20:09:40.077Z,102755.28
2023-05-17T20:12:07.270Z,102755.16
2023-05-17T20:14:33.786Z,102751.66
2023-05-17T20:17:00.698Z,102753.59
2023-05-17T20:19:27.401Z,102747.72
2023-05-17T20:21:56.484Z,102754.78
2023-05-17T20:24:24.739Z,102760.19
2023-05-17T20:26:51.374Z,102756.00
2023-05-17T20:29:17.912Z,102756.59
2023-05-17T20:31:44.402Z,102765.91
2023-05-17T20:34:11.023Z,102760.97
2023-05-17T20:36:37.529Z,102758.53
2023-05-17T20:39:04.036Z,102760.94
2023-05-17T20:41:30.562Z,102762.59
2023-05-17T20:43:56.994Z,102760.91
2023-05-17T20:46:23.750Z,102761.63
2023-05-17T20:48:50.653Z,102755.38
2023-05-17T20:51:17.982Z,102750.06
2023-05-17T20:53:46.217Z,102752.31
2023-05-17T20:56:14.165Z,102759.22
2023-05-17T20:58:40.759Z,102756.28
2023-05-17T21:01:07.536Z,102761.69
2023-05-17T21:03:35.012Z,102762.09
2023-05-17T21:06:02.474Z,102767.38
2023-05-17T21:08:29.006Z,102759.81
2023-05-17T21:10:56.196Z,102763.97
2023-05-17T21:13:25.479Z,102759.31
2023-05-17T21:15:53.348Z,102774.91
2023-05-17T21:18:19.923Z,102775.06
2023-05-17T21:20:46.760Z,102777.16
2023-05-17T21:23:13.352Z,102780.13
2023-05-17T21:25:39.946Z,102779.28
2023-05-17T21:28:07.448Z,102786.56
2023-05-17T21:30:34.117Z,102790.19
2023-05-17T21:33:00.998Z,102784.16
2023-05-17T21:35:27.621Z,102792.28
2023-05-17T21:37:54.026Z,102776.28
2023-05-17T21:40:20.834Z,102785.03
2023-05-17T21:42:47.852Z,102788.63
2023-05-17T21:45:14.785Z,102780.38
2023-05-17T21:47:41.453Z,102782.06
2023-05-17T21:50:08.230Z,102782.28
2023-05-17T21:52:34.764Z,102785.09
2023-05-17T21:55:01.397Z,102773.22
2023-05-17T21:57:27.882Z,102783.97
2023-05-17T21:59:54.395Z,102784.28
2023-05-17T22:02:21.031Z,102775.88
2023-05-17T22:04:47.617Z,102778.91
2023-05-17T22:07:14.184Z,102779.09
2023-05-17T22:09:40.694Z,102782.25
2023-05-17T22:12:08.659Z,102773.00
2023-05-17T22:14:36.377Z,102777.72
2023-05-17T22:17:08.053Z,102777.41
2023-05-17T22:19:40.402Z,102777.50
2023-05-17T22:22:07.906Z,102774.88
2023-05-17T22:24:34.487Z,102770.78
2023-05-17T22:27:01.338Z,102773.81
2023-05-17T22:29:28.144Z,102778.66
2023-05-17T22:31:54.832Z,102777.25
2023-05-17T22:34:21.864Z,102777.53
2023-05-17T22:36:49.183Z,102782.38
2023-05-17T22:39:15.624Z,102782.03
2023-05-17T22:41:42.270Z,102785.72
2023-05-17T22:44:08.831Z,102782.44
2023-05-17T22:46:35.332Z,102788.91
2023-05-17T22:49:01.872Z,102779.56
2023-05-17T22:51:30.122Z,102787.44
2023-05-17T22:53:56.903Z,102777.63
2023-05-17T22:56:23.496Z,102771.28
2023-05-17T22:58:49.990Z,102782.59
2023-05-17T23:01:16.588Z,102785.34
2023-05-17T23:03:43.254Z,102786.34
2023-05-17T23:06:10.525Z,102788.97
2023-05-17T23:08:37.233Z,102791.59
2023-05-17T23:11:05.317Z,102794.31
2023-05-17T23:13:31.802Z,102797.81
2023-05-17T23:15:58.443Z,102800.44
2023-05-17T23:18:27.388Z,102783.44
2023-05-17T23:20:54.153Z,102795.47
2023-05-17T23:23:23.050Z,102800.13
2023-05-17T23:25:50.808Z,102798.72
2023-05-17T23:28:18.744Z,102797.16
2023-05-17T23:30:48.727Z,102799.88
2023-05-17T23:33:15.436Z,102789.63
2023-05-17T23:35:41.973Z,102798.16
2023-05-17T23:38:08.424Z,102794.06
2023-05-17T23:40:34.901Z,102796.00
2023-05-17T23:43:01.497Z,102793.88
2023-05-17T23:45:28.185Z,102793.50
2023-05-17T23:47:54.908Z,102805.94
2023-05-17T23:50:21.649Z,102801.91
2023-05-17T23:52:48.163Z,102805.56
2023-05-17T23:55:14.599Z,102791.63
2023-05-17T23:57:42.484Z,102795.38
